Historyczne dane pomiarowe

Dodano dane terminowe – wersja testowa.

Dane z okresu 1951-2019

Wersja bazy: 1.34 [2019-03-16, lista zmian], aktualizacja planowana na 2019-04-15

Dane meteo z obszaru Polski uzyskane na podstawie danych udostępnionych przez Instytut Meteorologii i Gospodarki Wodnej – Państwowy Instytut Badawczy.

 

Wybierz Datę:    

       

TemperaturaWilgotnośćZachmurzenieWiatrCiśnienieWidzialnośćZjawiska
 Data    tng td wb rh cc ccl cl cm ch dir g1 g2 mslp ppp      
1999-08-11 00:00:00 17.4--- 15.0 15.986wxwxwx2wx--1010.0 987.4 0.0---wx
1999-08-11 01:00:00 16.7--- 14.9 15.689wxwx2wx--1010.1 987.5----wx
1999-08-11 02:00:00 16.9--- 15.0 15.788wxwxwx3wx--1010.3 987.7----wx
1999-08-11 03:00:00 16.9--- 14.6 15.586wxwxwx4wx--1010.2 987.6----wx
1999-08-11 04:00:00 16.4--- 14.6 15.389wxwx4wx--1010.4 987.7----wx
1999-08-11 05:00:00 16.1--- 14.8 15.392wxwxwx3wx--1010.8 988.1----wx
1999-08-11 06:00:00 15.8--- 14.5 15.092wxwxwx4wx--1011.5 988.8 0.0---wx
1999-08-11 07:00:00 15.9--- 14.9 15.394wxwxwx4wx--1012.4 989.7----wx
1999-08-11 08:00:00 17.0--- 14.6 15.586wxwxwx3wx--1012.6 989.9----wx
1999-08-11 09:00:00 17.4--- 15.3 16.188wxwxwxwx2wx--1012.4 989.8----wx
1999-08-11 10:00:00 18.4--- 14.9 16.280wxwxwxwx3wx--1012.9 990.3----wx
1999-08-11 11:00:00 17.0--- 15.7 16.292wxwxwxwx3wx--1013.2 990.5----wxw1
1999-08-11 12:00:00 16.9--- 15.1 15.889wxwxwxwx4wx--1013.7 991.0 0.0---wxw1
1999-08-11 13:00:00 18.1--- 12.7 14.971wxwxwxwx4wx--1013.9 991.3----wx
1999-08-11 14:00:00 18.8--- 10.9 14.260wxwxwxwx4wx--1014.1 991.5----wx
1999-08-11 15:00:00 19.7--- 9.7 14.053wxwxwxwx4wx--1014.2 991.7----wx
1999-08-11 16:00:00 19.0--- 9.5 13.654wxwxwxwx3wx--1014.4 991.8----wx
1999-08-11 17:00:00 18.6--- 10.2 13.858wxwxwxwx4wx--1014.7 992.1----wx
1999-08-11 18:00:00 18.0--- 8.6 12.854wxwxwx3wx--1015.2 992.6 0.0---wx
1999-08-11 19:00:00 17.4--- 9.6 13.060wxwxwx2wx--1015.8 993.1----wx
1999-08-11 20:00:00 16.8--- 9.7 12.863wxwxwx3wx--1016.0 993.2----wx
1999-08-11 21:00:00 15.7--- 9.8 12.468wxwxwx3wx--1016.2 993.4----wx
1999-08-11 22:00:00 14.6--- 9.6 11.872wxwx3wx--1016.4 993.5----wx
1999-08-11 23:00:00 14.8--- 9.4 11.870wxwxwx3wx--1016.5 993.6----wx

 

Źródłem pochodzenia danych jest Instytut Meteorologii i Gospodarki Wodnej – Państwowy Instytut Badawczy. Dane Instytutu Meteorologii i Gospodarki Wodnej – Państwowego Instytutu Badawczego zostały przetworzone.

Dane źródłowe można odnaleźć na stronie https://dane.imgw.pl